createdAt,value
2023-05-19T00:00:48.125Z,88.76
2023-05-19T00:01:45.740Z,93.45
2023-05-19T00:02:45.798Z,89.76
2023-05-19T00:03:45.716Z,86.15
2023-05-19T00:04:45.680Z,89.23
2023-05-19T00:05:45.783Z,95.35
2023-05-19T00:06:45.691Z,85.09
2023-05-19T00:07:45.650Z,86.93
2023-05-19T00:08:45.696Z,90.29
2023-05-19T00:09:45.663Z,88.34
2023-05-19T00:10:45.634Z,93.34
2023-05-19T00:11:45.677Z,95.66
2023-05-19T00:12:45.620Z,98.73
2023-05-19T00:13:45.622Z,84.23
2023-05-19T00:14:45.610Z,63.64
2023-05-19T00:15:45.686Z,63.61
2023-05-19T00:16:45.606Z,67.19
2023-05-19T00:17:45.698Z,66.48
2023-05-19T00:18:45.623Z,68.42
2023-05-19T00:19:45.560Z,70.36
2023-05-19T00:20:45.561Z,73.58
2023-05-19T00:21:45.576Z,81.76
2023-05-19T00:22:45.564Z,90.23
2023-05-19T00:23:45.554Z,92.00
2023-05-19T00:24:45.543Z,101.35
2023-05-19T00:25:45.544Z,105.11
2023-05-19T00:26:45.546Z,114.61
2023-05-19T00:27:45.521Z,121.72
2023-05-19T00:28:45.517Z,112.11
2023-05-19T00:29:45.520Z,110.86
2023-05-19T00:30:45.513Z,107.64
2023-05-19T00:31:45.505Z,124.00
2023-05-19T00:32:45.629Z,123.37
2023-05-19T00:33:45.498Z,130.25
2023-05-19T00:34:45.464Z,137.22
2023-05-19T00:35:45.470Z,143.79
2023-05-19T00:36:45.474Z,149.59
2023-05-19T00:37:45.456Z,144.50
2023-05-19T00:38:45.430Z,141.23
2023-05-19T00:39:45.418Z,135.85
2023-05-19T00:40:45.445Z,145.76
2023-05-19T00:41:45.447Z,149.33
2023-05-19T00:42:45.407Z,153.36
2023-05-19T00:43:45.419Z,153.75
2023-05-19T00:44:45.402Z,145.76
2023-05-19T00:45:45.398Z,157.78
2023-05-19T00:46:45.417Z,152.29
2023-05-19T00:47:45.432Z,148.41
2023-05-19T00:48:45.372Z,150.44
2023-05-19T00:49:45.360Z,153.55
2023-05-19T00:50:45.328Z,153.73
2023-05-19T00:51:45.344Z,149.54
2023-05-19T00:52:45.374Z,151.61
2023-05-19T00:53:45.337Z,144.13
2023-05-19T00:54:45.351Z,147.15
2023-05-19T00:55:45.323Z,146.47
2023-05-19T00:56:45.331Z,150.51
2023-05-19T00:57:45.289Z,161.62
2023-05-19T00:58:45.308Z,162.65
2023-05-19T00:59:45.299Z,163.20
2023-05-19T01:00:45.287Z,165.22
2023-05-19T01:01:45.271Z,166.90
2023-05-19T01:02:45.344Z,165.89
2023-05-19T01:03:45.399Z,163.44
2023-05-19T01:04:45.250Z,165.75
2023-05-19T01:05:45.260Z,165.34
2023-05-19T01:06:45.272Z,168.33
2023-05-19T01:07:45.216Z,177.71
2023-05-19T01:08:45.208Z,181.28
2023-05-19T01:09:45.204Z,169.85
2023-05-19T01:10:45.220Z,172.20
2023-05-19T01:11:45.204Z,170.40
2023-05-19T01:12:45.216Z,171.34
2023-05-19T01:13:45.175Z,173.86
2023-05-19T01:14:45.195Z,170.59
2023-05-19T01:15:45.165Z,170.52
2023-05-19T01:16:45.206Z,177.15
2023-05-19T01:17:45.215Z,172.33
2023-05-19T01:18:45.219Z,172.68
2023-05-19T01:19:45.134Z,174.69
2023-05-19T01:20:45.121Z,171.86
2023-05-19T01:21:45.128Z,175.33
2023-05-19T01:22:45.101Z,170.34
2023-05-19T01:23:45.102Z,165.89
2023-05-19T01:24:45.074Z,167.21
2023-05-19T01:25:45.085Z,166.98
2023-05-19T01:26:45.117Z,166.78
2023-05-19T01:27:45.131Z,172.74
2023-05-19T01:28:45.160Z,182.03
2023-05-19T01:29:45.118Z,176.09
2023-05-19T01:30:45.124Z,173.15
2023-05-19T01:31:45.143Z,170.35
2023-05-19T01:32:45.181Z,175.54
2023-05-19T01:33:45.128Z,178.89
2023-05-19T01:34:45.149Z,186.73
2023-05-19T01:35:45.114Z,183.03
2023-05-19T01:36:45.147Z,194.88
2023-05-19T01:37:45.123Z,196.80
2023-05-19T01:38:45.127Z,205.62
2023-05-19T01:39:45.114Z,209.99
2023-05-19T01:40:45.166Z,224.86
2023-05-19T01:41:45.178Z,216.13
2023-05-19T01:42:45.194Z,203.99
2023-05-19T01:43:45.213Z,204.34
2023-05-19T01:44:45.240Z,198.63
2023-05-19T01:45:45.317Z,192.78
2023-05-19T01:46:45.321Z,189.20
2023-05-19T01:47:45.424Z,188.83
2023-05-19T01:48:45.413Z,183.12
2023-05-19T01:49:45.458Z,176.02
2023-05-19T01:50:45.522Z,174.91
2023-05-19T01:51:45.593Z,184.81
2023-05-19T01:52:45.637Z,188.97
2023-05-19T01:53:45.696Z,188.00
2023-05-19T01:54:45.782Z,182.30
2023-05-19T01:55:45.819Z,188.95
2023-05-19T01:56:46.750Z,190.56
2023-05-19T01:57:45.931Z,195.42
2023-05-19T01:58:46.099Z,198.25
2023-05-19T01:59:46.083Z,194.84
2023-05-19T02:00:46.105Z,197.10
2023-05-19T02:01:46.239Z,199.33
2023-05-19T02:02:46.249Z,200.81
2023-05-19T02:03:46.320Z,199.10
2023-05-19T02:04:46.428Z,196.78
2023-05-19T02:05:46.406Z,197.00
2023-05-19T02:06:46.470Z,206.91
2023-05-19T02:07:46.535Z,205.52
2023-05-19T02:08:46.603Z,205.42
2023-05-19T02:09:46.647Z,205.97
2023-05-19T02:10:46.687Z,208.31
2023-05-19T02:11:46.745Z,205.33
2023-05-19T02:12:46.823Z,211.70
2023-05-19T02:13:46.863Z,211.08
2023-05-19T02:14:46.936Z,207.62
2023-05-19T02:15:46.966Z,206.11
2023-05-19T02:16:46.996Z,204.01
2023-05-19T02:17:47.103Z,206.11
2023-05-19T02:18:47.142Z,206.07
2023-05-19T02:19:47.177Z,207.22
2023-05-19T02:20:47.240Z,212.85
2023-05-19T02:21:47.278Z,217.28
2023-05-19T02:22:47.319Z,218.45
2023-05-19T02:23:47.344Z,209.59
2023-05-19T02:24:47.426Z,205.30
2023-05-19T02:25:47.441Z,211.44
2023-05-19T02:26:47.487Z,207.02
2023-05-19T02:27:47.569Z,210.20
2023-05-19T02:28:47.625Z,212.86
2023-05-19T02:29:47.637Z,213.68
2023-05-19T02:30:47.727Z,210.68
2023-05-19T02:31:47.815Z,210.82
2023-05-19T02:32:47.807Z,206.55
2023-05-19T02:33:47.846Z,208.59
2023-05-19T02:34:47.871Z,205.14
2023-05-19T02:35:48.282Z,210.17
2023-05-19T02:36:47.965Z,209.91
2023-05-19T02:37:47.990Z,217.25
2023-05-19T02:38:48.033Z,215.90
2023-05-19T02:39:48.064Z,216.32
2023-05-19T02:40:48.226Z,212.90
2023-05-19T02:41:48.142Z,213.62
2023-05-19T02:42:48.210Z,214.41
2023-05-19T02:43:48.259Z,215.54
2023-05-19T02:44:48.297Z,220.06
2023-05-19T02:45:48.371Z,220.46
2023-05-19T02:46:48.548Z,221.55
2023-05-19T02:47:48.448Z,217.44
2023-05-19T02:48:48.479Z,222.18
2023-05-19T02:49:48.506Z,220.11
2023-05-19T02:50:48.565Z,223.35
2023-05-19T02:51:48.544Z,222.90
2023-05-19T02:52:48.578Z,220.90
2023-05-19T02:53:48.626Z,226.09
2023-05-19T02:54:48.637Z,218.26
2023-05-19T02:55:48.707Z,217.05
2023-05-19T02:56:48.757Z,218.99
2023-05-19T02:57:48.804Z,218.76
2023-05-19T02:58:48.833Z,218.26
2023-05-19T02:59:48.842Z,212.26
2023-05-19T03:00:48.891Z,216.88
2023-05-19T03:01:49.008Z,221.47
2023-05-19T03:02:49.208Z,218.15
2023-05-19T03:03:49.100Z,218.25
2023-05-19T03:04:49.038Z,222.71
2023-05-19T03:05:49.100Z,216.11
2023-05-19T03:06:49.121Z,215.41
2023-05-19T03:07:49.115Z,215.73
2023-05-19T03:08:49.109Z,214.94
2023-05-19T03:09:49.074Z,216.95
2023-05-19T03:10:49.104Z,216.55
2023-05-19T03:11:49.118Z,213.27
2023-05-19T03:12:49.094Z,212.27
2023-05-19T03:13:49.093Z,214.17
2023-05-19T03:14:49.140Z,212.94
2023-05-19T03:15:49.139Z,214.40
2023-05-19T03:16:49.254Z,214.68
2023-05-19T03:17:49.182Z,210.52
2023-05-19T03:18:49.168Z,213.91
2023-05-19T03:19:49.135Z,213.17
2023-05-19T03:20:49.119Z,211.19
2023-05-19T03:21:49.068Z,213.88
2023-05-19T03:22:49.114Z,214.53
2023-05-19T03:23:49.145Z,212.19
2023-05-19T03:24:49.060Z,211.76
2023-05-19T03:25:49.105Z,209.49
2023-05-19T03:26:49.075Z,209.06
2023-05-19T03:27:49.103Z,218.05
2023-05-19T03:28:49.101Z,205.89
2023-05-19T03:29:49.088Z,208.17
2023-05-19T03:30:49.104Z,205.12
2023-05-19T03:31:49.113Z,209.08
2023-05-19T03:32:49.184Z,210.06
2023-05-19T03:33:49.146Z,211.00
2023-05-19T03:34:49.156Z,206.35
2023-05-19T03:35:49.231Z,208.40
2023-05-19T03:36:49.240Z,209.50
2023-05-19T03:37:49.275Z,206.75
2023-05-19T03:38:49.300Z,206.66
2023-05-19T03:39:49.331Z,201.81
2023-05-19T03:40:49.420Z,207.04
2023-05-19T03:41:49.404Z,202.07
2023-05-19T03:42:49.447Z,206.25
2023-05-19T03:43:49.484Z,208.40
2023-05-19T03:44:49.516Z,208.86
2023-05-19T03:45:49.572Z,204.58
2023-05-19T03:46:49.573Z,205.06
2023-05-19T03:47:49.630Z,206.69
2023-05-19T03:48:49.663Z,211.93
2023-05-19T03:49:49.686Z,205.27
2023-05-19T03:50:49.702Z,205.85
2023-05-19T03:51:49.739Z,209.40
2023-05-19T03:52:49.748Z,206.76
2023-05-19T03:53:49.795Z,207.04
2023-05-19T03:54:49.832Z,210.74
2023-05-19T03:55:49.849Z,206.66
2023-05-19T03:56:49.896Z,206.58
2023-05-19T03:57:49.937Z,207.84
2023-05-19T03:58:49.985Z,203.94
2023-05-19T03:59:50.035Z,207.82
2023-05-19T04:00:50.062Z,206.41
2023-05-19T04:01:50.090Z,200.30
2023-05-19T04:02:50.188Z,204.64
2023-05-19T04:03:50.137Z,203.46
2023-05-19T04:04:50.279Z,201.19
2023-05-19T04:05:50.256Z,210.46
2023-05-19T04:06:50.390Z,204.06
2023-05-19T04:07:50.322Z,206.51
2023-05-19T04:08:50.375Z,202.65
2023-05-19T04:09:50.428Z,205.41
2023-05-19T04:10:50.491Z,205.30
2023-05-19T04:11:50.528Z,202.49
2023-05-19T04:12:50.598Z,202.49
2023-05-19T04:13:50.647Z,208.42
2023-05-19T04:14:50.706Z,204.12
2023-05-19T04:15:50.794Z,202.87
2023-05-19T04:16:50.808Z,204.42
2023-05-19T04:17:50.924Z,201.87
2023-05-19T04:18:50.992Z,203.52
2023-05-19T04:19:50.923Z,199.97
2023-05-19T04:20:51.012Z,199.56
2023-05-19T04:21:51.033Z,203.41
2023-05-19T04:22:51.106Z,201.30
2023-05-19T04:23:51.153Z,202.52
2023-05-19T04:24:51.237Z,205.33
2023-05-19T04:25:51.287Z,204.29
2023-05-19T04:26:51.343Z,197.07
2023-05-19T04:27:51.349Z,201.65
2023-05-19T04:28:51.415Z,200.88
2023-05-19T04:29:52.319Z,198.93
2023-05-19T04:30:51.594Z,202.29
2023-05-19T04:31:51.593Z,200.41
2023-05-19T04:32:51.700Z,195.93
2023-05-19T04:33:51.692Z,196.51
2023-05-19T04:34:51.746Z,196.51
2023-05-19T04:35:51.778Z,199.46
2023-05-19T04:36:53.519Z,199.69
2023-05-19T04:37:51.954Z,197.57
2023-05-19T04:38:51.957Z,188.93
2023-05-19T04:39:52.000Z,184.80
2023-05-19T04:40:52.102Z,185.16
2023-05-19T04:41:52.114Z,182.09
2023-05-19T04:42:52.160Z,185.98
2023-05-19T04:43:52.224Z,188.06
2023-05-19T04:44:52.310Z,192.74
2023-05-19T04:45:52.328Z,186.46
2023-05-19T04:46:52.416Z,180.87
2023-05-19T04:47:52.415Z,180.36
2023-05-19T04:48:52.401Z,176.22
2023-05-19T04:49:52.445Z,173.52
2023-05-19T04:50:52.470Z,181.20
2023-05-19T04:51:55.525Z,178.51
2023-05-19T04:52:52.471Z,180.22
2023-05-19T04:53:52.468Z,175.99
2023-05-19T04:54:52.465Z,174.27
2023-05-19T04:55:52.454Z,176.20
2023-05-19T04:56:52.453Z,180.45
2023-05-19T04:57:52.468Z,178.69
2023-05-19T04:58:52.439Z,171.09
2023-05-19T04:59:52.412Z,173.10
2023-05-19T05:00:59.872Z,174.67
2023-05-19T05:01:52.471Z,175.20
2023-05-19T05:02:52.483Z,176.41
2023-05-19T05:03:52.453Z,175.95
2023-05-19T05:04:52.390Z,175.38
2023-05-19T05:05:52.396Z,178.74
2023-05-19T05:06:52.378Z,171.46
2023-05-19T05:07:52.362Z,171.48
2023-05-19T05:08:52.357Z,177.33
2023-05-19T05:09:52.363Z,165.83
2023-05-19T05:10:52.362Z,166.78
2023-05-19T05:11:52.338Z,165.52
2023-05-19T05:12:52.320Z,163.10
2023-05-19T05:13:52.325Z,164.65
2023-05-19T05:14:52.296Z,148.30
2023-05-19T05:15:52.392Z,148.84
2023-05-19T05:16:52.336Z,153.61
2023-05-19T05:17:52.324Z,142.24
2023-05-19T05:18:52.273Z,141.87
2023-05-19T05:19:52.299Z,141.39
2023-05-19T05:20:52.311Z,131.18
2023-05-19T05:21:52.446Z,140.48
2023-05-19T05:22:52.267Z,152.26
2023-05-19T05:23:52.270Z,146.98
2023-05-19T05:24:52.250Z,153.36
2023-05-19T05:25:52.236Z,149.92
2023-05-19T05:26:52.199Z,149.70
2023-05-19T05:27:52.207Z,154.83
2023-05-19T05:28:52.273Z,140.65
2023-05-19T05:29:52.302Z,139.47
2023-05-19T05:30:52.328Z,146.84
2023-05-19T05:31:52.370Z,145.35
2023-05-19T05:32:52.522Z,144.08
2023-05-19T05:33:52.496Z,129.64
2023-05-19T05:34:52.510Z,136.47
2023-05-19T05:35:52.571Z,141.55
2023-05-19T05:36:52.608Z,136.28
2023-05-19T05:37:52.657Z,143.52
2023-05-19T05:38:52.759Z,137.80
2023-05-19T05:39:52.718Z,111.43
2023-05-19T05:40:52.787Z,89.99
2023-05-19T05:41:52.821Z,106.16
2023-05-19T05:42:52.856Z,88.06
2023-05-19T05:43:52.898Z,90.55
2023-05-19T05:44:52.951Z,105.14
2023-05-19T05:46:00.458Z,120.91
2023-05-19T05:46:52.984Z,121.64
2023-05-19T05:47:53.015Z,123.90
2023-05-19T05:48:52.952Z,127.74
2023-05-19T05:49:53.663Z,128.44
2023-05-19T05:50:52.962Z,132.57
2023-05-19T05:52:05.112Z,128.40
2023-05-19T05:52:53.946Z,128.48
2023-05-19T05:53:52.908Z,128.16
2023-05-19T05:54:52.990Z,132.61
2023-05-19T05:55:52.941Z,134.77
2023-05-19T05:56:52.917Z,142.23
2023-05-19T05:57:52.888Z,138.27
2023-05-19T05:58:52.899Z,131.44
2023-05-19T05:59:52.904Z,129.32
2023-05-19T06:00:52.875Z,132.32
2023-05-19T06:01:52.873Z,117.49
2023-05-19T06:02:52.957Z,103.47
2023-05-19T06:03:52.900Z,115.15
2023-05-19T06:04:52.837Z,119.67
2023-05-19T06:05:52.989Z,129.98
2023-05-19T06:06:52.867Z,122.13
2023-05-19T06:07:52.844Z,115.10
2023-05-19T06:08:52.827Z,126.70
2023-05-19T06:09:52.822Z,134.44
2023-05-19T06:10:52.833Z,146.69
2023-05-19T06:11:52.847Z,150.35
2023-05-19T06:12:52.895Z,156.16
2023-05-19T06:13:52.931Z,156.02
2023-05-19T06:14:52.978Z,156.88
2023-05-19T06:15:53.045Z,148.82
2023-05-19T06:16:53.033Z,150.54
2023-05-19T06:17:53.036Z,151.68
2023-05-19T06:18:53.049Z,147.27
2023-05-19T06:19:53.021Z,152.10
2023-05-19T06:20:53.002Z,154.10
2023-05-19T06:21:53.010Z,150.30
2023-05-19T06:22:53.051Z,156.59
2023-05-19T06:23:53.083Z,151.53
2023-05-19T06:24:53.143Z,156.78
2023-05-19T06:25:53.184Z,158.14
2023-05-19T06:26:53.215Z,159.93
2023-05-19T06:27:53.221Z,157.97
2023-05-19T06:28:53.260Z,158.51
2023-05-19T06:29:53.289Z,164.56
2023-05-19T06:30:53.369Z,161.26
2023-05-19T06:31:53.412Z,165.73
2023-05-19T06:32:53.407Z,172.60
2023-05-19T06:33:53.401Z,174.49
2023-05-19T06:34:53.437Z,170.52
2023-05-19T06:35:53.481Z,170.41
2023-05-19T06:36:53.528Z,173.60
2023-05-19T06:37:53.533Z,172.71
2023-05-19T06:38:53.534Z,172.86
2023-05-19T06:39:53.630Z,174.01
2023-05-19T06:40:53.590Z,167.85
2023-05-19T06:41:53.594Z,171.54
2023-05-19T06:42:53.610Z,168.32
2023-05-19T06:43:53.633Z,170.81
2023-05-19T06:44:53.637Z,171.97
2023-05-19T06:45:53.658Z,168.40
2023-05-19T06:46:53.735Z,166.35
2023-05-19T06:47:53.756Z,160.38
2023-05-19T06:48:53.733Z,159.28
2023-05-19T06:49:53.820Z,165.59
2023-05-19T06:50:53.820Z,163.06
2023-05-19T06:51:53.838Z,158.32
2023-05-19T06:52:53.887Z,157.29
2023-05-19T06:53:53.892Z,148.73
2023-05-19T06:54:53.942Z,146.41
2023-05-19T06:55:58.597Z,150.92
2023-05-19T06:56:54.993Z,150.95
2023-05-19T06:57:53.983Z,132.28
2023-05-19T06:58:53.943Z,127.96
2023-05-19T06:59:53.965Z,135.67
2023-05-19T07:00:53.937Z,144.53
2023-05-19T07:01:53.960Z,148.75
2023-05-19T07:02:53.983Z,147.75
2023-05-19T07:03:53.994Z,137.65
2023-05-19T07:04:53.931Z,131.49
2023-05-19T07:05:53.931Z,135.16
2023-05-19T07:06:53.895Z,116.55
2023-05-19T07:07:53.914Z,124.62
2023-05-19T07:08:53.877Z,134.67
2023-05-19T07:09:53.875Z,133.66
2023-05-19T07:10:53.909Z,133.13
2023-05-19T07:11:53.886Z,134.30
2023-05-19T07:12:53.861Z,130.80
2023-05-19T07:13:53.879Z,137.74
2023-05-19T07:14:53.862Z,128.20
2023-05-19T07:15:53.876Z,124.51
2023-05-19T07:16:53.862Z,131.58
2023-05-19T07:17:53.858Z,130.39
2023-05-19T07:18:53.824Z,130.02
2023-05-19T07:19:53.837Z,136.30
2023-05-19T07:20:53.896Z,135.32
2023-05-19T07:21:53.915Z,104.00
2023-05-19T07:22:53.919Z,100.03
2023-05-19T07:23:53.881Z,89.08
2023-05-19T07:24:53.871Z,100.71
2023-05-19T07:25:53.902Z,113.42
2023-05-19T07:26:53.915Z,120.15
2023-05-19T07:27:53.944Z,113.37
2023-05-19T07:28:53.981Z,101.67
2023-05-19T07:29:54.010Z,95.46
2023-05-19T07:30:54.057Z,87.76
2023-05-19T07:31:54.141Z,71.31
2023-05-19T07:32:54.122Z,75.44
2023-05-19T07:33:54.725Z,60.83
2023-05-19T07:34:54.182Z,77.72
2023-05-19T07:35:54.239Z,95.68
2023-05-19T07:36:54.283Z,101.66
2023-05-19T07:37:54.277Z,109.42
2023-05-19T07:38:54.370Z,102.48
2023-05-19T07:39:54.385Z,104.60
2023-05-19T07:40:54.432Z,97.97
2023-05-19T07:41:54.491Z,98.27
2023-05-19T07:42:54.484Z,83.27
2023-05-19T07:43:54.515Z,97.46
2023-05-19T07:44:54.574Z,70.32
2023-05-19T07:45:54.599Z,36.58
2023-05-19T07:46:54.575Z,27.71
2023-05-19T07:47:54.576Z,32.19
2023-05-19T07:48:54.565Z,38.30
2023-05-19T07:49:54.581Z,38.98
2023-05-19T07:50:54.589Z,41.34
2023-05-19T07:51:54.617Z,34.89
2023-05-19T07:52:54.583Z,36.22
2023-05-19T07:53:54.566Z,28.45
2023-05-19T07:54:54.571Z,24.54
2023-05-19T07:55:55.843Z,41.29
2023-05-19T07:56:54.590Z,32.34
2023-05-19T07:57:54.554Z,60.19
2023-05-19T07:58:54.599Z,78.91
2023-05-19T07:59:54.593Z,60.89
2023-05-19T08:00:54.528Z,52.37
2023-05-19T08:01:54.559Z,60.75
2023-05-19T08:02:54.566Z,63.35
2023-05-19T08:03:54.647Z,62.31
2023-05-19T08:04:54.667Z,57.00
2023-05-19T08:05:54.668Z,72.28
2023-05-19T08:06:54.705Z,83.98
2023-05-19T08:07:54.720Z,91.34
2023-05-19T08:08:54.777Z,96.80
2023-05-19T08:09:54.812Z,101.70
2023-05-19T08:10:54.884Z,106.99
2023-05-19T08:11:54.928Z,109.03
2023-05-19T08:12:54.932Z,103.98
2023-05-19T08:13:55.017Z,100.72
2023-05-19T08:14:55.028Z,99.12
2023-05-19T08:15:55.094Z,92.12
2023-05-19T08:16:55.081Z,94.98
2023-05-19T08:17:55.220Z,104.07
2023-05-19T08:18:55.191Z,107.34
2023-05-19T08:19:55.222Z,109.57
2023-05-19T08:20:55.259Z,97.45
2023-05-19T08:21:55.267Z,96.77
2023-05-19T08:22:55.328Z,103.36
2023-05-19T08:23:55.333Z,100.58
2023-05-19T08:24:55.316Z,99.10
2023-05-19T08:25:55.339Z,96.95
2023-05-19T08:26:55.318Z,91.64
2023-05-19T08:27:55.316Z,88.16
2023-05-19T08:28:55.289Z,86.05
2023-05-19T08:29:55.340Z,91.81
2023-05-19T08:30:55.385Z,98.08
2023-05-19T08:31:55.407Z,87.80
2023-05-19T08:32:55.347Z,95.57
2023-05-19T08:33:55.329Z,93.35
2023-05-19T08:34:55.299Z,99.50
2023-05-19T08:35:55.353Z,97.22
2023-05-19T08:36:55.323Z,79.02
2023-05-19T08:37:55.330Z,72.77
2023-05-19T08:38:55.316Z,85.31
2023-05-19T08:39:55.319Z,90.60
2023-05-19T08:40:55.346Z,73.70
2023-05-19T08:41:55.358Z,80.90
2023-05-19T08:42:55.375Z,88.09
2023-05-19T08:43:55.383Z,93.84
2023-05-19T08:44:55.363Z,97.62
2023-05-19T08:45:55.413Z,91.91
2023-05-19T08:46:55.495Z,82.53
2023-05-19T08:47:55.528Z,75.92
2023-05-19T08:48:55.522Z,85.83
2023-05-19T08:49:55.566Z,93.49
2023-05-19T08:50:55.600Z,88.19
2023-05-19T08:51:55.654Z,80.69
2023-05-19T08:52:55.702Z,85.66
2023-05-19T08:53:55.746Z,82.66
2023-05-19T08:54:55.866Z,82.27
2023-05-19T08:55:55.857Z,66.46
2023-05-19T08:56:55.922Z,70.08
2023-05-19T08:57:55.941Z,46.17
2023-05-19T08:58:55.963Z,49.42
2023-05-19T08:59:56.020Z,76.41
2023-05-19T09:00:56.121Z,93.11
2023-05-19T09:01:56.129Z,90.71
2023-05-19T09:03:06.059Z,86.96
2023-05-19T09:03:57.273Z,86.48
2023-05-19T09:04:56.182Z,88.27
2023-05-19T09:05:56.179Z,83.55
2023-05-19T09:06:56.109Z,71.32
2023-05-19T09:07:56.134Z,61.22
2023-05-19T09:08:56.100Z,72.41
2023-05-19T09:09:56.110Z,77.94
2023-05-19T09:10:56.082Z,76.34
2023-05-19T09:11:56.108Z,82.30
2023-05-19T09:12:56.097Z,74.74
2023-05-19T09:13:56.066Z,61.78
2023-05-19T09:14:56.080Z,74.40
2023-05-19T09:15:56.093Z,82.74
2023-05-19T09:16:56.120Z,83.22
2023-05-19T09:17:56.181Z,93.70
2023-05-19T09:18:56.277Z,80.79
2023-05-19T09:19:56.188Z,78.24
2023-05-19T09:20:56.218Z,80.30
2023-05-19T09:21:56.315Z,86.83
2023-05-19T09:22:56.348Z,73.38
2023-05-19T09:23:56.417Z,75.75
2023-05-19T09:24:56.443Z,55.09
2023-05-19T09:25:56.486Z,60.58
2023-05-19T09:26:57.745Z,57.00
2023-05-19T09:27:56.788Z,63.83
2023-05-19T09:28:56.825Z,58.66
2023-05-19T09:29:56.915Z,52.13
2023-05-19T09:30:56.972Z,48.32
2023-05-19T09:31:57.144Z,53.29
2023-05-19T09:32:57.134Z,47.03
2023-05-19T09:33:57.196Z,41.41
2023-05-19T09:34:57.254Z,64.35
2023-05-19T09:35:57.311Z,51.57
2023-05-19T09:36:57.337Z,57.20
2023-05-19T09:37:57.399Z,59.36
2023-05-19T09:38:57.478Z,41.12
2023-05-19T09:39:57.539Z,45.79
2023-05-19T09:40:57.608Z,40.06
2023-05-19T09:41:57.810Z,51.65
2023-05-19T09:42:57.722Z,48.15
2023-05-19T09:43:57.765Z,48.04
2023-05-19T09:44:57.771Z,44.99
2023-05-19T09:45:57.832Z,54.78
2023-05-19T09:46:57.829Z,46.78
2023-05-19T09:47:57.886Z,38.35
2023-05-19T09:48:57.843Z,29.10
2023-05-19T09:49:57.892Z,47.48
2023-05-19T09:50:57.900Z,66.18
2023-05-19T09:51:57.884Z,57.18
2023-05-19T09:52:57.897Z,57.32
2023-05-19T09:53:57.957Z,65.57
2023-05-19T09:54:58.020Z,63.90
2023-05-19T09:55:58.088Z,71.09
2023-05-19T09:56:58.167Z,73.76
2023-05-19T09:57:58.183Z,77.02
2023-05-19T09:58:58.265Z,56.54
2023-05-19T09:59:58.336Z,45.15
2023-05-19T10:00:58.342Z,59.03
2023-05-19T10:01:58.451Z,51.18
2023-05-19T10:02:58.507Z,37.64
2023-05-19T10:03:58.556Z,51.68
2023-05-19T10:04:58.673Z,52.83
2023-05-19T10:05:58.684Z,23.96
2023-05-19T10:06:58.723Z,24.14
2023-05-19T10:07:58.795Z,48.68
2023-05-19T10:08:58.865Z,82.05
2023-05-19T10:09:58.932Z,80.20
2023-05-19T10:10:58.971Z,75.00
2023-05-19T10:11:59.066Z,71.76
2023-05-19T10:12:59.078Z,80.97
2023-05-19T10:13:59.126Z,54.95
2023-05-19T10:14:59.176Z,28.22
2023-05-19T10:16:00.139Z,54.46
2023-05-19T10:16:59.444Z,57.32
2023-05-19T10:17:59.498Z,73.76
2023-05-19T10:18:59.433Z,62.27
2023-05-19T10:19:59.453Z,18.70
2023-05-19T10:20:59.508Z,32.15
2023-05-19T10:21:59.578Z,54.69
2023-05-19T10:22:59.626Z,55.78
2023-05-19T10:23:59.684Z,50.27
2023-05-19T10:24:59.754Z,62.71
2023-05-19T10:25:59.802Z,42.95
2023-05-19T10:26:59.854Z,40.14
2023-05-19T10:27:59.917Z,52.56
2023-05-19T10:28:59.949Z,39.52
2023-05-19T10:29:59.985Z,23.09
2023-05-19T10:31:00.235Z,42.11
2023-05-19T10:32:00.219Z,58.95
2023-05-19T10:33:00.249Z,86.92
2023-05-19T10:34:00.219Z,68.53
2023-05-19T10:35:00.285Z,82.61
2023-05-19T10:36:00.350Z,99.35
2023-05-19T10:37:00.365Z,98.88
2023-05-19T10:38:00.462Z,87.84
2023-05-19T10:39:00.473Z,103.76
2023-05-19T10:40:00.569Z,107.96
2023-05-19T10:41:00.616Z,86.81
2023-05-19T10:42:00.644Z,61.04
2023-05-19T10:43:00.674Z,42.07
2023-05-19T10:44:00.777Z,75.77
2023-05-19T10:45:00.802Z,79.57
2023-05-19T10:46:00.823Z,70.89
2023-05-19T10:47:00.976Z,60.85
2023-05-19T10:48:01.050Z,62.53
2023-05-19T10:49:00.980Z,30.58
2023-05-19T10:50:01.068Z,68.72
2023-05-19T10:51:01.100Z,73.56
2023-05-19T10:52:01.188Z,72.52
2023-05-19T10:53:01.222Z,72.86
2023-05-19T10:54:01.239Z,82.91
2023-05-19T10:55:01.309Z,56.29
2023-05-19T10:56:01.342Z,18.56
2023-05-19T10:57:01.389Z,21.87
2023-05-19T10:58:01.396Z,28.11
2023-05-19T10:59:01.417Z,47.53
2023-05-19T11:00:01.453Z,92.58
2023-05-19T11:01:01.405Z,114.64
2023-05-19T11:02:01.515Z,117.44
2023-05-19T11:03:01.475Z,135.01
2023-05-19T11:04:01.576Z,109.76
2023-05-19T11:05:01.581Z,90.73
2023-05-19T11:06:01.615Z,83.42
2023-05-19T11:07:01.685Z,122.32
2023-05-19T11:08:01.744Z,116.96
2023-05-19T11:09:01.790Z,90.60
2023-05-19T11:10:01.865Z,112.93
2023-05-19T11:11:01.883Z,114.02
2023-05-19T11:12:01.938Z,118.24
2023-05-19T11:13:02.012Z,133.55
2023-05-19T11:14:02.031Z,150.43
2023-05-19T11:15:02.173Z,146.03
2023-05-19T11:16:02.148Z,111.31
2023-05-19T11:17:02.286Z,120.87
2023-05-19T11:18:02.321Z,144.21
2023-05-19T11:19:02.429Z,157.58
2023-05-19T11:20:02.373Z,153.18
2023-05-19T11:21:02.702Z,145.68
2023-05-19T11:22:02.447Z,137.94
2023-05-19T11:23:02.572Z,147.80
2023-05-19T11:24:02.619Z,90.97
2023-05-19T11:25:02.612Z,95.12
2023-05-19T11:26:02.675Z,109.35
2023-05-19T11:27:02.708Z,133.91
2023-05-19T11:28:02.796Z,141.71
2023-05-19T11:29:02.796Z,122.46
2023-05-19T11:30:02.871Z,142.52
2023-05-19T11:31:02.909Z,126.87
2023-05-19T11:32:02.980Z,109.33
2023-05-19T11:33:03.000Z,128.22
2023-05-19T11:34:02.915Z,125.60
2023-05-19T11:35:02.952Z,120.84
2023-05-19T11:36:02.902Z,135.16
2023-05-19T11:37:02.928Z,144.75
2023-05-19T11:38:02.920Z,124.77
2023-05-19T11:39:02.933Z,127.13
2023-05-19T11:40:02.946Z,165.36
2023-05-19T11:41:02.943Z,158.02
2023-05-19T11:42:02.944Z,167.48
2023-05-19T11:43:02.936Z,168.40
2023-05-19T11:44:02.931Z,178.55
2023-05-19T11:45:02.955Z,190.41
2023-05-19T11:46:02.968Z,203.20
2023-05-19T11:47:02.920Z,201.17
2023-05-19T11:48:03.419Z,159.40
2023-05-19T11:49:02.934Z,133.51
2023-05-19T11:50:02.918Z,164.11
2023-05-19T11:51:02.908Z,172.60
2023-05-19T11:52:02.909Z,174.95
2023-05-19T11:53:02.910Z,173.83
2023-05-19T11:54:02.929Z,126.28
2023-05-19T11:55:02.915Z,123.57
2023-05-19T11:56:02.887Z,114.35
2023-05-19T11:57:02.940Z,128.96
2023-05-19T11:58:04.629Z,152.39
2023-05-19T11:59:02.904Z,183.85
2023-05-19T12:00:02.976Z,165.77
2023-05-19T12:01:02.901Z,142.47
2023-05-19T12:02:02.883Z,146.01
2023-05-19T12:03:02.971Z,154.69
2023-05-19T12:04:02.970Z,156.96
2023-05-19T12:05:02.883Z,154.36
2023-05-19T12:06:02.900Z,179.01
2023-05-19T12:07:02.880Z,140.21
2023-05-19T12:08:02.888Z,157.03
2023-05-19T12:09:02.874Z,170.24
2023-05-19T12:10:02.918Z,140.49
2023-05-19T12:11:02.946Z,59.54
2023-05-19T12:12:03.032Z,21.16
2023-05-19T12:13:03.079Z,26.90
2023-05-19T12:14:03.121Z,27.01
2023-05-19T12:15:03.188Z,34.75
2023-05-19T12:16:03.225Z,24.02
2023-05-19T12:17:03.273Z,22.05
2023-05-19T12:18:03.353Z,25.00
2023-05-19T12:19:03.438Z,26.71
2023-05-19T12:20:03.447Z,29.35
2023-05-19T12:21:03.527Z,36.00
2023-05-19T12:22:04.188Z,45.47
2023-05-19T12:23:03.730Z,51.94
2023-05-19T12:24:03.684Z,35.12
2023-05-19T12:25:03.744Z,13.21
2023-05-19T12:26:03.823Z,15.49
2023-05-19T12:27:03.890Z,37.52
2023-05-19T12:28:04.104Z,89.39
2023-05-19T12:29:03.999Z,129.46
2023-05-19T12:30:04.070Z,103.24
2023-05-19T12:31:04.142Z,132.77
2023-05-19T12:32:04.236Z,108.27
2023-05-19T12:33:04.372Z,112.20
2023-05-19T12:34:04.346Z,100.40
2023-05-19T12:35:04.393Z,90.93
2023-05-19T12:36:04.441Z,127.11
2023-05-19T12:37:04.491Z,154.16